СИЛА РОССИИ. Форум сайта «Отвага» (www.otvaga2004.ru)

Информация о пользователе

Привет, Гость! Войдите или зарегистрируйтесь.


Вы здесь » СИЛА РОССИИ. Форум сайта «Отвага» (www.otvaga2004.ru) » Вооружение сухопутных войск


Вооружение сухопутных войск

Тем 1 страница 30 из 195

Тема Ответов Просмотров Последнее сообщение
1 Важно: Закрыта Средства ПВО-9  ДимитриUS  [ 1 2 3  40 ]
1190 118538 2020-10-22 21:29:22  Blitz.
2 Средства ПВО-10  Виталий Иванович (PQ)  [ 1 2 3 ]
82 1543 Сегодня 03:01:59  Blitz.
120 6769 2020-10-25 16:59:11  Wotan
1207 78473 2020-10-25 16:37:41  Алексей Михайлович
1130 75992 2020-10-25 09:26:31  отрохов
154 30465 2020-10-25 06:47:44  Рагнар Лодброк
7 РСЗО-4  finnbogi  [ 1 2 3  21 ]
607 72598 2020-10-24 20:55:44  Blitz.
908 169458 2020-10-24 17:00:41  Sibiryak86
9 Пистолеты-пулеметы  Zaklepkin  [ 1 2 3  27 ]
787 125569 2020-10-24 12:27:30  отрохов
672 16801 2020-10-23 14:13:47  отрохов
611 115664 2020-10-23 12:38:32  Wind
12 Пулеметы-8  KORVIN  [ 1 2 3  38 ]
1132 122492 2020-10-22 12:18:23  cromeshnic
126 21886 2020-10-22 11:59:03  Wind
246 35243 2020-10-21 17:13:59  Wind
15 Пистолеты-4  Абалкин  [ 1 2 3  9 ]
245 30611 2020-10-21 10:37:04  Sibiryak86
595 54793 2020-10-19 21:06:30  PawelTu
1494 142050 2020-10-19 17:10:14  Wind
18 Фортификация  Lans  [ 1 2 3  6 ]
154 20891 2020-10-16 17:35:32  Механический кот
19 Камуфляж-2  KORVIN  [ 1 2 3  12 ]
336 76211 2020-10-16 11:29:58  Comrade
57 10618 2020-10-12 22:26:27  Retiv
283 70367 2020-10-09 00:05:22  Retiv
22 Снайперские винтовки-5  vasya83  [ 1 2 3  12 ]
334 63750 2020-10-05 15:53:43  Hooke
23 СИБЗ-3  Wiedzmin  [ 1 2 3  13 ]
383 93236 2020-10-01 10:36:36  gfst
24 Средства ПВО - 8  kinetic  [ 1 2 3  34 ]
1009 109631 2020-09-25 21:59:29  Oleg7700
25 Буксируемая артиллерия - 2  Пехота  [ 1 2 3  8 ]
230 32329 2020-09-23 21:24:02  KarakulovIliy
26 Боевые роботы 2  Шестопер  [ 1 2 3 4 5 ]
140 26936 2020-09-07 13:46:01  Wind
679 70720 2020-09-04 13:19:37  Wind
28 Прицелы-2  KORVIN  [ 1 2 3  24 ]
694 112463 2020-09-02 18:42:09  DAK
767 111315 2020-08-29 16:36:56  DAK
30 РЛС разведки  Astax  [ 1 2 ]
50 12141 2020-08-29 11:54:15  Василий_Пупкин_123

Вы здесь » СИЛА РОССИИ. Форум сайта «Отвага» (www.otvaga2004.ru) » Вооружение сухопутных войск